sensor_id;sensor_type;location;lat;lon;timestamp;P1;durP1;ratioP1;P2;durP2;ratioP2
26080;SDS011;13991;51.174;4.438;2024-03-07T00:02:04;73.30;;;31.73;;
26080;SDS011;13991;51.174;4.438;2024-03-07T00:04:31;75.20;;;32.43;;
26080;SDS011;13991;51.174;4.438;2024-03-07T00:06:57;81.90;;;34.30;;
26080;SDS011;13991;51.174;4.438;2024-03-07T00:09:23;83.50;;;32.33;;
26080;SDS011;13991;51.174;4.438;2024-03-07T00:11:49;82.43;;;33.60;;
26080;SDS011;13991;51.174;4.438;2024-03-07T00:14:15;79.77;;;32.47;;
26080;SDS011;13991;51.174;4.438;2024-03-07T00:16:41;78.60;;;34.43;;
26080;SDS011;13991;51.174;4.438;2024-03-07T00:19:06;73.57;;;32.50;;
26080;SDS011;13991;51.174;4.438;2024-03-07T00:21:32;87.67;;;35.57;;
26080;SDS011;13991;51.174;4.438;2024-03-07T00:23:58;80.97;;;33.13;;
26080;SDS011;13991;51.174;4.438;2024-03-07T00:26:24;94.27;;;36.40;;
26080;SDS011;13991;51.174;4.438;2024-03-07T00:28:50;77.90;;;34.07;;
26080;SDS011;13991;51.174;4.438;2024-03-07T00:31:16;88.40;;;36.63;;
26080;SDS011;13991;51.174;4.438;2024-03-07T00:33:42;84.30;;;34.67;;
26080;SDS011;13991;51.174;4.438;2024-03-07T00:36:11;82.83;;;35.10;;
26080;SDS011;13991;51.174;4.438;2024-03-07T00:38:37;85.60;;;35.87;;
26080;SDS011;13991;51.174;4.438;2024-03-07T00:41:03;82.87;;;36.13;;
26080;SDS011;13991;51.174;4.438;2024-03-07T00:43:29;84.77;;;36.50;;
26080;SDS011;13991;51.174;4.438;2024-03-07T00:45:55;89.53;;;37.00;;
26080;SDS011;13991;51.174;4.438;2024-03-07T00:48:21;99.03;;;37.67;;
26080;SDS011;13991;51.174;4.438;2024-03-07T00:50:49;84.37;;;34.70;;
26080;SDS011;13991;51.174;4.438;2024-03-07T00:53:15;100.13;;;38.50;;
26080;SDS011;13991;51.174;4.438;2024-03-07T00:55:41;95.27;;;37.53;;
26080;SDS011;13991;51.174;4.438;2024-03-07T00:58:06;83.23;;;36.47;;
26080;SDS011;13991;51.174;4.438;2024-03-07T01:00:32;90.47;;;37.77;;
26080;SDS011;13991;51.174;4.438;2024-03-07T01:02:58;87.33;;;36.43;;
26080;SDS011;13991;51.174;4.438;2024-03-07T01:05:23;96.07;;;38.07;;
26080;SDS011;13991;51.174;4.438;2024-03-07T01:07:49;116.35;;;48.83;;
26080;SDS011;13991;51.174;4.438;2024-03-07T01:10:15;93.20;;;41.50;;
26080;SDS011;13991;51.174;4.438;2024-03-07T01:12:41;89.77;;;37.97;;
26080;SDS011;13991;51.174;4.438;2024-03-07T01:15:08;101.77;;;37.87;;
26080;SDS011;13991;51.174;4.438;2024-03-07T01:17:36;99.40;;;38.00;;
26080;SDS011;13991;51.174;4.438;2024-03-07T01:20:02;88.33;;;37.40;;
26080;SDS011;13991;51.174;4.438;2024-03-07T01:22:29;95.90;;;38.63;;
26080;SDS011;13991;51.174;4.438;2024-03-07T01:24:55;99.17;;;38.23;;
26080;SDS011;13991;51.174;4.438;2024-03-07T01:27:20;97.03;;;38.77;;
26080;SDS011;13991;51.174;4.438;2024-03-07T01:29:49;109.47;;;40.70;;
26080;SDS011;13991;51.174;4.438;2024-03-07T01:32:15;97.00;;;40.23;;
26080;SDS011;13991;51.174;4.438;2024-03-07T01:34:43;112.47;;;40.83;;
26080;SDS011;13991;51.174;4.438;2024-03-07T01:37:10;102.57;;;40.33;;
26080;SDS011;13991;51.174;4.438;2024-03-07T01:39:36;96.73;;;38.97;;
26080;SDS011;13991;51.174;4.438;2024-03-07T01:42:02;97.10;;;39.37;;
26080;SDS011;13991;51.174;4.438;2024-03-07T01:44:27;105.53;;;39.50;;
26080;SDS011;13991;51.174;4.438;2024-03-07T01:46:57;100.97;;;40.97;;
26080;SDS011;13991;51.174;4.438;2024-03-07T01:49:27;93.00;;;39.67;;
26080;SDS011;13991;51.174;4.438;2024-03-07T01:51:54;99.10;;;38.07;;
26080;SDS011;13991;51.174;4.438;2024-03-07T01:54:20;111.03;;;41.23;;
26080;SDS011;13991;51.174;4.438;2024-03-07T01:56:46;103.33;;;39.00;;
26080;SDS011;13991;51.174;4.438;2024-03-07T01:59:12;106.27;;;41.07;;
26080;SDS011;13991;51.174;4.438;2024-03-07T02:01:38;95.43;;;36.60;;
26080;SDS011;13991;51.174;4.438;2024-03-07T02:04:04;107.43;;;42.27;;
26080;SDS011;13991;51.174;4.438;2024-03-07T02:06:29;95.43;;;36.53;;
26080;SDS011;13991;51.174;4.438;2024-03-07T02:08:55;107.03;;;43.07;;
26080;SDS011;13991;51.174;4.438;2024-03-07T02:11:21;103.70;;;40.00;;
26080;SDS011;13991;51.174;4.438;2024-03-07T02:13:48;106.67;;;41.63;;
26080;SDS011;13991;51.174;4.438;2024-03-07T02:16:14;101.77;;;39.23;;
26080;SDS011;13991;51.174;4.438;2024-03-07T02:18:40;105.53;;;40.33;;
26080;SDS011;13991;51.174;4.438;2024-03-07T02:21:07;111.50;;;40.80;;
26080;SDS011;13991;51.174;4.438;2024-03-07T02:23:34;113.40;;;41.97;;
26080;SDS011;13991;51.174;4.438;2024-03-07T02:25:59;99.43;;;39.87;;
26080;SDS011;13991;51.174;4.438;2024-03-07T02:28:25;108.93;;;40.53;;
26080;SDS011;13991;51.174;4.438;2024-03-07T02:30:51;97.27;;;40.50;;
26080;SDS011;13991;51.174;4.438;2024-03-07T02:33:16;107.77;;;41.57;;
26080;SDS011;13991;51.174;4.438;2024-03-07T02:35:42;111.93;;;41.33;;
26080;SDS011;13991;51.174;4.438;2024-03-07T02:38:08;110.13;;;39.73;;
26080;SDS011;13991;51.174;4.438;2024-03-07T02:40:34;107.17;;;40.87;;
26080;SDS011;13991;51.174;4.438;2024-03-07T02:42:59;104.70;;;40.67;;
26080;SDS011;13991;51.174;4.438;2024-03-07T02:45:25;116.23;;;41.63;;
26080;SDS011;13991;51.174;4.438;2024-03-07T02:47:51;107.40;;;39.83;;
26080;SDS011;13991;51.174;4.438;2024-03-07T02:50:18;112.33;;;42.63;;
26080;SDS011;13991;51.174;4.438;2024-03-07T02:52:45;113.23;;;40.67;;
26080;SDS011;13991;51.174;4.438;2024-03-07T02:55:11;117.80;;;42.10;;
26080;SDS011;13991;51.174;4.438;2024-03-07T02:57:36;113.53;;;42.13;;
26080;SDS011;13991;51.174;4.438;2024-03-07T03:00:02;103.50;;;40.27;;
26080;SDS011;13991;51.174;4.438;2024-03-07T03:02:38;104.13;;;40.67;;
26080;SDS011;13991;51.174;4.438;2024-03-07T03:05:04;115.73;;;44.07;;
26080;SDS011;13991;51.174;4.438;2024-03-07T03:07:33;108.23;;;41.47;;
26080;SDS011;13991;51.174;4.438;2024-03-07T03:09:58;107.60;;;40.43;;
26080;SDS011;13991;51.174;4.438;2024-03-07T03:12:24;111.03;;;40.93;;
26080;SDS011;13991;51.174;4.438;2024-03-07T03:14:51;114.80;;;42.33;;
26080;SDS011;13991;51.174;4.438;2024-03-07T03:17:18;100.30;;;39.77;;
26080;SDS011;13991;51.174;4.438;2024-03-07T03:19:44;102.77;;;40.37;;
26080;SDS011;13991;51.174;4.438;2024-03-07T03:22:10;122.87;;;41.63;;
26080;SDS011;13991;51.174;4.438;2024-03-07T03:24:36;119.37;;;44.83;;
26080;SDS011;13991;51.174;4.438;2024-03-07T03:27:02;116.90;;;42.83;;
26080;SDS011;13991;51.174;4.438;2024-03-07T03:29:27;123.93;;;43.53;;
26080;SDS011;13991;51.174;4.438;2024-03-07T03:31:54;106.23;;;41.83;;
26080;SDS011;13991;51.174;4.438;2024-03-07T03:34:20;116.60;;;43.63;;
26080;SDS011;13991;51.174;4.438;2024-03-07T03:36:46;111.47;;;42.23;;
26080;SDS011;13991;51.174;4.438;2024-03-07T03:39:14;109.33;;;41.87;;
26080;SDS011;13991;51.174;4.438;2024-03-07T03:41:40;117.57;;;42.60;;
26080;SDS011;13991;51.174;4.438;2024-03-07T03:44:06;115.97;;;42.13;;
26080;SDS011;13991;51.174;4.438;2024-03-07T03:46:32;107.53;;;40.47;;
26080;SDS011;13991;51.174;4.438;2024-03-07T03:48:58;102.80;;;40.03;;
26080;SDS011;13991;51.174;4.438;2024-03-07T03:51:23;128.87;;;42.70;;
26080;SDS011;13991;51.174;4.438;2024-03-07T03:53:50;118.07;;;41.00;;
26080;SDS011;13991;51.174;4.438;2024-03-07T03:56:16;135.65;;;56.53;;
26080;SDS011;13991;51.174;4.438;2024-03-07T03:58:42;116.77;;;44.33;;
26080;SDS011;13991;51.174;4.438;2024-03-07T04:01:08;113.93;;;42.77;;
26080;SDS011;13991;51.174;4.438;2024-03-07T04:03:38;112.27;;;39.90;;
26080;SDS011;13991;51.174;4.438;2024-03-07T04:06:04;111.03;;;42.10;;
26080;SDS011;13991;51.174;4.438;2024-03-07T04:08:30;118.23;;;43.07;;
26080;SDS011;13991;51.174;4.438;2024-03-07T04:10:55;112.63;;;42.83;;
26080;SDS011;13991;51.174;4.438;2024-03-07T04:13:21;120.73;;;42.83;;
26080;SDS011;13991;51.174;4.438;2024-03-07T04:15:47;124.77;;;44.27;;
26080;SDS011;13991;51.174;4.438;2024-03-07T04:18:13;122.87;;;46.07;;
26080;SDS011;13991;51.174;4.438;2024-03-07T04:20:38;117.30;;;42.47;;
26080;SDS011;13991;51.174;4.438;2024-03-07T04:23:04;123.13;;;44.63;;
26080;SDS011;13991;51.174;4.438;2024-03-07T04:25:30;116.93;;;43.20;;
26080;SDS011;13991;51.174;4.438;2024-03-07T04:27:58;144.10;;;46.13;;
26080;SDS011;13991;51.174;4.438;2024-03-07T04:30:24;126.90;;;44.10;;
26080;SDS011;13991;51.174;4.438;2024-03-07T04:32:49;117.80;;;43.33;;
26080;SDS011;13991;51.174;4.438;2024-03-07T04:35:17;118.57;;;42.67;;
26080;SDS011;13991;51.174;4.438;2024-03-07T04:37:42;126.07;;;45.13;;
26080;SDS011;13991;51.174;4.438;2024-03-07T04:40:08;117.97;;;43.67;;
26080;SDS011;13991;51.174;4.438;2024-03-07T04:42:49;123.13;;;43.77;;
26080;SDS011;13991;51.174;4.438;2024-03-07T04:45:15;144.83;;;46.07;;
26080;SDS011;13991;51.174;4.438;2024-03-07T04:47:42;130.50;;;45.80;;
26080;SDS011;13991;51.174;4.438;2024-03-07T04:50:09;129.23;;;45.60;;
26080;SDS011;13991;51.174;4.438;2024-03-07T04:52:38;121.30;;;42.57;;
26080;SDS011;13991;51.174;4.438;2024-03-07T04:55:08;123.33;;;43.73;;
26080;SDS011;13991;51.174;4.438;2024-03-07T04:57:38;131.13;;;45.57;;
26080;SDS011;13991;51.174;4.438;2024-03-07T05:00:06;131.37;;;45.17;;
26080;SDS011;13991;51.174;4.438;2024-03-07T05:02:38;133.20;;;45.83;;
26080;SDS011;13991;51.174;4.438;2024-03-07T05:05:04;127.27;;;45.00;;
26080;SDS011;13991;51.174;4.438;2024-03-07T05:07:30;134.57;;;47.73;;
26080;SDS011;13991;51.174;4.438;2024-03-07T05:09:56;126.43;;;45.93;;
26080;SDS011;13991;51.174;4.438;2024-03-07T05:12:21;125.20;;;44.90;;
26080;SDS011;13991;51.174;4.438;2024-03-07T05:14:47;136.47;;;46.50;;
26080;SDS011;13991;51.174;4.438;2024-03-07T05:17:13;121.93;;;44.70;;
26080;SDS011;13991;51.174;4.438;2024-03-07T05:19:38;137.17;;;48.23;;
26080;SDS011;13991;51.174;4.438;2024-03-07T05:22:04;131.37;;;47.60;;
26080;SDS011;13991;51.174;4.438;2024-03-07T05:24:31;119.40;;;42.77;;
26080;SDS011;13991;51.174;4.438;2024-03-07T05:26:58;139.00;;;49.30;;
26080;SDS011;13991;51.174;4.438;2024-03-07T05:29:24;149.87;;;49.87;;
26080;SDS011;13991;51.174;4.438;2024-03-07T05:31:50;126.60;;;46.27;;
26080;SDS011;13991;51.174;4.438;2024-03-07T05:34:15;136.67;;;45.67;;
26080;SDS011;13991;51.174;4.438;2024-03-07T05:36:44;133.80;;;46.17;;
26080;SDS011;13991;51.174;4.438;2024-03-07T05:39:11;141.90;;;47.80;;
26080;SDS011;13991;51.174;4.438;2024-03-07T05:41:38;144.03;;;48.77;;
26080;SDS011;13991;51.174;4.438;2024-03-07T05:44:05;142.17;;;46.20;;
26080;SDS011;13991;51.174;4.438;2024-03-07T05:46:38;141.70;;;47.50;;
26080;SDS011;13991;51.174;4.438;2024-03-07T05:49:12;135.00;;;46.80;;
26080;SDS011;13991;51.174;4.438;2024-03-07T05:51:38;145.23;;;48.30;;
26080;SDS011;13991;51.174;4.438;2024-03-07T05:54:04;146.53;;;49.80;;
26080;SDS011;13991;51.174;4.438;2024-03-07T05:56:35;161.23;;;50.97;;
26080;SDS011;13991;51.174;4.438;2024-03-07T05:59:04;167.70;;;52.03;;
26080;SDS011;13991;51.174;4.438;2024-03-07T06:01:32;158.43;;;51.57;;
26080;SDS011;13991;51.174;4.438;2024-03-07T06:04:02;156.97;;;51.83;;
26080;SDS011;13991;51.174;4.438;2024-03-07T06:06:32;154.83;;;51.03;;
26080;SDS011;13991;51.174;4.438;2024-03-07T06:09:03;158.90;;;52.37;;
26080;SDS011;13991;51.174;4.438;2024-03-07T06:11:36;170.27;;;55.67;;
26080;SDS011;13991;51.174;4.438;2024-03-07T06:14:03;175.63;;;52.97;;
26080;SDS011;13991;51.174;4.438;2024-03-07T06:16:30;178.93;;;54.87;;
26080;SDS011;13991;51.174;4.438;2024-03-07T06:18:58;164.77;;;52.47;;
26080;SDS011;13991;51.174;4.438;2024-03-07T06:21:27;193.37;;;55.97;;
26080;SDS011;13991;51.174;4.438;2024-03-07T06:23:56;178.00;;;55.27;;
26080;SDS011;13991;51.174;4.438;2024-03-07T06:26:28;179.40;;;54.50;;
26080;SDS011;13991;51.174;4.438;2024-03-07T06:29:06;177.63;;;53.37;;
26080;SDS011;13991;51.174;4.438;2024-03-07T06:31:33;186.97;;;55.83;;
26080;SDS011;13991;51.174;4.438;2024-03-07T06:33:59;191.00;;;58.40;;
26080;SDS011;13991;51.174;4.438;2024-03-07T06:36:25;189.63;;;56.27;;
26080;SDS011;13991;51.174;4.438;2024-03-07T06:38:51;204.93;;;58.03;;
26080;SDS011;13991;51.174;4.438;2024-03-07T06:41:17;203.27;;;57.57;;
26080;SDS011;13991;51.174;4.438;2024-03-07T06:43:43;192.87;;;57.03;;
26080;SDS011;13991;51.174;4.438;2024-03-07T06:46:11;188.23;;;58.13;;
26080;SDS011;13991;51.174;4.438;2024-03-07T06:48:40;199.90;;;59.00;;
26080;SDS011;13991;51.174;4.438;2024-03-07T06:51:07;211.53;;;58.57;;
26080;SDS011;13991;51.174;4.438;2024-03-07T06:53:32;198.57;;;58.30;;
26080;SDS011;13991;51.174;4.438;2024-03-07T06:55:58;188.87;;;57.03;;
26080;SDS011;13991;51.174;4.438;2024-03-07T06:58:24;194.57;;;56.17;;
26080;SDS011;13991;51.174;4.438;2024-03-07T07:00:51;187.77;;;54.87;;
26080;SDS011;13991;51.174;4.438;2024-03-07T07:03:19;168.13;;;52.13;;
26080;SDS011;13991;51.174;4.438;2024-03-07T07:05:45;157.73;;;52.07;;
26080;SDS011;13991;51.174;4.438;2024-03-07T07:08:11;160.20;;;51.67;;
26080;SDS011;13991;51.174;4.438;2024-03-07T07:10:39;168.23;;;51.50;;
26080;SDS011;13991;51.174;4.438;2024-03-07T07:13:05;158.13;;;49.87;;
26080;SDS011;13991;51.174;4.438;2024-03-07T07:15:32;160.57;;;52.23;;
26080;SDS011;13991;51.174;4.438;2024-03-07T07:17:58;175.63;;;53.90;;
26080;SDS011;13991;51.174;4.438;2024-03-07T07:20:24;166.93;;;52.97;;
26080;SDS011;13991;51.174;4.438;2024-03-07T07:22:50;164.77;;;52.73;;
26080;SDS011;13991;51.174;4.438;2024-03-07T07:25:16;169.87;;;55.33;;
26080;SDS011;13991;51.174;4.438;2024-03-07T07:27:45;173.87;;;54.73;;
26080;SDS011;13991;51.174;4.438;2024-03-07T07:30:13;175.37;;;56.17;;
26080;SDS011;13991;51.174;4.438;2024-03-07T07:32:40;163.63;;;55.10;;
26080;SDS011;13991;51.174;4.438;2024-03-07T07:35:08;171.77;;;55.00;;
26080;SDS011;13991;51.174;4.438;2024-03-07T07:40:04;175.03;;;54.83;;
26080;SDS011;13991;51.174;4.438;2024-03-07T07:42:33;181.67;;;56.77;;
26080;SDS011;13991;51.174;4.438;2024-03-07T07:44:59;180.93;;;56.77;;
26080;SDS011;13991;51.174;4.438;2024-03-07T07:47:25;173.63;;;56.80;;
26080;SDS011;13991;51.174;4.438;2024-03-07T07:49:51;175.20;;;58.37;;
26080;SDS011;13991;51.174;4.438;2024-03-07T07:52:17;180.43;;;58.00;;
26080;SDS011;13991;51.174;4.438;2024-03-07T07:54:42;177.53;;;56.30;;
26080;SDS011;13991;51.174;4.438;2024-03-07T07:57:08;183.13;;;57.17;;
26080;SDS011;13991;51.174;4.438;2024-03-07T07:59:34;176.13;;;58.33;;
26080;SDS011;13991;51.174;4.438;2024-03-07T08:02:01;176.33;;;58.50;;
26080;SDS011;13991;51.174;4.438;2024-03-07T08:04:31;165.10;;;57.83;;
26080;SDS011;13991;51.174;4.438;2024-03-07T08:06:57;178.63;;;60.80;;
26080;SDS011;13991;51.174;4.438;2024-03-07T08:09:23;164.73;;;57.20;;
26080;SDS011;13991;51.174;4.438;2024-03-07T08:11:49;170.03;;;57.43;;
26080;SDS011;13991;51.174;4.438;2024-03-07T08:14:15;178.17;;;59.23;;
26080;SDS011;13991;51.174;4.438;2024-03-07T08:16:41;179.80;;;58.33;;
26080;SDS011;13991;51.174;4.438;2024-03-07T08:19:06;166.83;;;58.57;;
26080;SDS011;13991;51.174;4.438;2024-03-07T08:21:33;164.17;;;57.73;;
26080;SDS011;13991;51.174;4.438;2024-03-07T08:23:59;156.07;;;56.63;;
26080;SDS011;13991;51.174;4.438;2024-03-07T08:26:28;156.40;;;55.17;;
26080;SDS011;13991;51.174;4.438;2024-03-07T08:28:54;153.13;;;55.03;;
26080;SDS011;13991;51.174;4.438;2024-03-07T08:31:20;140.67;;;50.90;;
26080;SDS011;13991;51.174;4.438;2024-03-07T08:33:45;144.37;;;52.13;;
26080;SDS011;13991;51.174;4.438;2024-03-07T08:36:11;141.67;;;53.37;;
26080;SDS011;13991;51.174;4.438;2024-03-07T08:38:37;123.87;;;48.40;;
26080;SDS011;13991;51.174;4.438;2024-03-07T08:41:03;137.10;;;48.70;;
26080;SDS011;13991;51.174;4.438;2024-03-07T08:43:29;120.77;;;46.07;;
26080;SDS011;13991;51.174;4.438;2024-03-07T08:45:54;126.60;;;48.67;;
26080;SDS011;13991;51.174;4.438;2024-03-07T08:48:20;120.57;;;45.00;;
26080;SDS011;13991;51.174;4.438;2024-03-07T08:50:47;113.63;;;43.27;;
26080;SDS011;13991;51.174;4.438;2024-03-07T08:53:13;113.57;;;45.20;;
26080;SDS011;13991;51.174;4.438;2024-03-07T08:55:38;109.23;;;44.30;;
26080;SDS011;13991;51.174;4.438;2024-03-07T08:58:04;108.60;;;44.40;;
26080;SDS011;13991;51.174;4.438;2024-03-07T09:00:31;110.27;;;43.77;;
26080;SDS011;13991;51.174;4.438;2024-03-07T09:02:57;109.03;;;43.43;;
26080;SDS011;13991;51.174;4.438;2024-03-07T09:05:24;104.90;;;41.30;;
26080;SDS011;13991;51.174;4.438;2024-03-07T09:07:51;107.03;;;43.40;;
26080;SDS011;13991;51.174;4.438;2024-03-07T09:10:17;110.57;;;43.50;;
26080;SDS011;13991;51.174;4.438;2024-03-07T09:12:43;93.83;;;41.03;;
26080;SDS011;13991;51.174;4.438;2024-03-07T09:15:09;109.97;;;39.70;;
26080;SDS011;13991;51.174;4.438;2024-03-07T09:17:35;95.57;;;40.67;;
26080;SDS011;13991;51.174;4.438;2024-03-07T09:20:02;106.47;;;40.47;;
26080;SDS011;13991;51.174;4.438;2024-03-07T09:22:30;105.30;;;40.97;;
26080;SDS011;13991;51.174;4.438;2024-03-07T09:24:56;95.53;;;40.73;;
26080;SDS011;13991;51.174;4.438;2024-03-07T09:27:22;91.87;;;38.07;;
26080;SDS011;13991;51.174;4.438;2024-03-07T09:29:48;91.67;;;36.27;;
26080;SDS011;13991;51.174;4.438;2024-03-07T09:32:14;96.13;;;36.63;;
26080;SDS011;13991;51.174;4.438;2024-03-07T09:34:49;88.17;;;37.23;;
26080;SDS011;13991;51.174;4.438;2024-03-07T09:37:15;88.80;;;35.93;;
26080;SDS011;13991;51.174;4.438;2024-03-07T09:39:40;88.00;;;37.50;;
26080;SDS011;13991;51.174;4.438;2024-03-07T09:42:09;85.50;;;34.93;;
26080;SDS011;13991;51.174;4.438;2024-03-07T09:44:40;83.53;;;34.30;;
26080;SDS011;13991;51.174;4.438;2024-03-07T09:47:08;99.50;;;36.93;;
26080;SDS011;13991;51.174;4.438;2024-03-07T09:49:36;93.27;;;35.60;;
26080;SDS011;13991;51.174;4.438;2024-03-07T09:52:04;91.17;;;34.90;;
26080;SDS011;13991;51.174;4.438;2024-03-07T09:54:33;83.30;;;34.63;;
26080;SDS011;13991;51.174;4.438;2024-03-07T09:56:59;86.63;;;35.53;;
26080;SDS011;13991;51.174;4.438;2024-03-07T09:59:28;79.87;;;35.10;;
26080;SDS011;13991;51.174;4.438;2024-03-07T10:01:57;91.30;;;36.63;;
26080;SDS011;13991;51.174;4.438;2024-03-07T10:04:29;76.50;;;33.53;;
26080;SDS011;13991;51.174;4.438;2024-03-07T10:06:56;80.27;;;33.00;;
26080;SDS011;13991;51.174;4.438;2024-03-07T10:09:23;80.57;;;32.47;;
26080;SDS011;13991;51.174;4.438;2024-03-07T10:11:56;76.90;;;32.43;;
26080;SDS011;13991;51.174;4.438;2024-03-07T10:14:22;85.53;;;32.73;;
26080;SDS011;13991;51.174;4.438;2024-03-07T10:16:48;62.67;;;30.60;;
26080;SDS011;13991;51.174;4.438;2024-03-07T10:19:14;73.93;;;31.30;;
26080;SDS011;13991;51.174;4.438;2024-03-07T10:21:40;74.53;;;32.33;;
26080;SDS011;13991;51.174;4.438;2024-03-07T10:24:06;77.27;;;32.10;;
26080;SDS011;13991;51.174;4.438;2024-03-07T10:26:37;78.57;;;31.80;;
26080;SDS011;13991;51.174;4.438;2024-03-07T10:29:06;70.93;;;31.43;;
26080;SDS011;13991;51.174;4.438;2024-03-07T10:31:35;72.70;;;30.00;;
26080;SDS011;13991;51.174;4.438;2024-03-07T10:34:04;68.40;;;30.80;;
26080;SDS011;13991;51.174;4.438;2024-03-07T10:36:30;64.13;;;29.17;;
26080;SDS011;13991;51.174;4.438;2024-03-07T10:38:57;66.43;;;29.53;;
26080;SDS011;13991;51.174;4.438;2024-03-07T10:41:36;67.10;;;29.90;;
26080;SDS011;13991;51.174;4.438;2024-03-07T10:44:24;76.17;;;29.73;;
26080;SDS011;13991;51.174;4.438;2024-03-07T10:46:57;65.13;;;28.30;;
26080;SDS011;13991;51.174;4.438;2024-03-07T10:49:28;85.37;;;31.37;;
26080;SDS011;13991;51.174;4.438;2024-03-07T10:54:47;60.17;;;28.67;;
26080;SDS011;13991;51.174;4.438;2024-03-07T11:00:21;66.20;;;27.77;;
26080;SDS011;13991;51.174;4.438;2024-03-07T11:03:08;61.63;;;27.77;;
26080;SDS011;13991;51.174;4.438;2024-03-07T11:05:34;61.17;;;28.20;;
26080;SDS011;13991;51.174;4.438;2024-03-07T11:08:01;53.67;;;25.20;;
26080;SDS011;13991;51.174;4.438;2024-03-07T11:10:37;57.73;;;24.97;;
26080;SDS011;13991;51.174;4.438;2024-03-07T11:13:06;57.80;;;27.10;;
26080;SDS011;13991;51.174;4.438;2024-03-07T11:15:37;50.80;;;25.90;;
26080;SDS011;13991;51.174;4.438;2024-03-07T11:18:09;58.17;;;26.50;;
26080;SDS011;13991;51.174;4.438;2024-03-07T11:20:37;57.60;;;27.07;;
26080;SDS011;13991;51.174;4.438;2024-03-07T11:26:05;54.93;;;24.27;;
26080;SDS011;13991;51.174;4.438;2024-03-07T11:28:34;62.30;;;26.97;;
26080;SDS011;13991;51.174;4.438;2024-03-07T11:31:46;55.33;;;26.30;;
26080;SDS011;13991;51.174;4.438;2024-03-07T11:34:12;59.67;;;25.97;;
26080;SDS011;13991;51.174;4.438;2024-03-07T11:36:44;53.40;;;24.73;;
26080;SDS011;13991;51.174;4.438;2024-03-07T11:42:08;54.30;;;25.53;;
26080;SDS011;13991;51.174;4.438;2024-03-07T11:44:34;51.30;;;26.20;;
26080;SDS011;13991;51.174;4.438;2024-03-07T11:47:03;58.33;;;27.83;;
26080;SDS011;13991;51.174;4.438;2024-03-07T11:49:36;66.40;;;28.43;;
26080;SDS011;13991;51.174;4.438;2024-03-07T11:52:03;65.23;;;29.30;;
26080;SDS011;13991;51.174;4.438;2024-03-07T11:54:36;62.33;;;29.03;;
26080;SDS011;13991;51.174;4.438;2024-03-07T11:57:06;75.70;;;31.80;;
26080;SDS011;13991;51.174;4.438;2024-03-07T11:59:41;67.17;;;30.63;;
26080;SDS011;13991;51.174;4.438;2024-03-07T12:02:14;63.67;;;28.73;;
26080;SDS011;13991;51.174;4.438;2024-03-07T12:04:46;70.27;;;30.33;;
26080;SDS011;13991;51.174;4.438;2024-03-07T12:07:12;71.30;;;32.20;;
26080;SDS011;13991;51.174;4.438;2024-03-07T12:09:42;72.20;;;31.30;;
26080;SDS011;13991;51.174;4.438;2024-03-07T12:12:10;83.63;;;33.10;;
26080;SDS011;13991;51.174;4.438;2024-03-07T12:14:37;75.20;;;32.93;;
26080;SDS011;13991;51.174;4.438;2024-03-07T12:17:04;72.87;;;31.33;;
26080;SDS011;13991;51.174;4.438;2024-03-07T12:19:31;68.23;;;31.20;;
26080;SDS011;13991;51.174;4.438;2024-03-07T12:22:01;69.17;;;31.13;;
26080;SDS011;13991;51.174;4.438;2024-03-07T12:24:28;65.40;;;32.20;;
26080;SDS011;13991;51.174;4.438;2024-03-07T12:27:04;70.40;;;31.90;;
26080;SDS011;13991;51.174;4.438;2024-03-07T12:29:31;70.13;;;32.90;;
26080;SDS011;13991;51.174;4.438;2024-03-07T12:31:58;65.13;;;32.10;;
26080;SDS011;13991;51.174;4.438;2024-03-07T12:34:24;69.07;;;32.83;;
26080;SDS011;13991;51.174;4.438;2024-03-07T12:36:52;80.80;;;33.80;;
26080;SDS011;13991;51.174;4.438;2024-03-07T12:39:24;70.83;;;32.77;;
26080;SDS011;13991;51.174;4.438;2024-03-07T12:41:51;72.77;;;33.57;;
26080;SDS011;13991;51.174;4.438;2024-03-07T12:44:20;81.33;;;33.50;;
26080;SDS011;13991;51.174;4.438;2024-03-07T12:46:47;70.70;;;31.80;;
26080;SDS011;13991;51.174;4.438;2024-03-07T12:49:16;74.50;;;34.17;;
26080;SDS011;13991;51.174;4.438;2024-03-07T12:51:42;62.63;;;31.47;;
26080;SDS011;13991;51.174;4.438;2024-03-07T12:54:08;66.23;;;29.47;;
26080;SDS011;13991;51.174;4.438;2024-03-07T12:56:36;66.70;;;29.93;;
26080;SDS011;13991;51.174;4.438;2024-03-07T12:59:05;64.80;;;29.93;;
26080;SDS011;13991;51.174;4.438;2024-03-07T13:01:37;65.97;;;32.47;;
26080;SDS011;13991;51.174;4.438;2024-03-07T13:04:05;56.57;;;28.70;;
26080;SDS011;13991;51.174;4.438;2024-03-07T13:06:33;69.17;;;29.73;;
26080;SDS011;13991;51.174;4.438;2024-03-07T13:08:59;59.70;;;27.33;;
26080;SDS011;13991;51.174;4.438;2024-03-07T13:11:25;52.80;;;27.67;;
26080;SDS011;13991;51.174;4.438;2024-03-07T13:13:57;58.00;;;28.10;;
26080;SDS011;13991;51.174;4.438;2024-03-07T13:16:23;69.70;;;29.30;;
26080;SDS011;13991;51.174;4.438;2024-03-07T13:18:53;62.73;;;29.37;;
26080;SDS011;13991;51.174;4.438;2024-03-07T13:21:19;55.10;;;26.30;;
26080;SDS011;13991;51.174;4.438;2024-03-07T13:23:45;64.70;;;27.90;;
26080;SDS011;13991;51.174;4.438;2024-03-07T13:26:11;53.00;;;25.70;;
26080;SDS011;13991;51.174;4.438;2024-03-07T13:28:44;55.20;;;27.23;;
26080;SDS011;13991;51.174;4.438;2024-03-07T13:31:10;57.83;;;27.57;;
26080;SDS011;13991;51.174;4.438;2024-03-07T13:33:37;58.97;;;26.43;;
26080;SDS011;13991;51.174;4.438;2024-03-07T13:36:02;56.60;;;26.30;;
26080;SDS011;13991;51.174;4.438;2024-03-07T13:38:29;49.90;;;25.87;;
26080;SDS011;13991;51.174;4.438;2024-03-07T13:40:55;50.90;;;23.70;;
26080;SDS011;13991;51.174;4.438;2024-03-07T13:43:22;54.23;;;24.23;;
26080;SDS011;13991;51.174;4.438;2024-03-07T13:45:48;50.97;;;21.97;;
26080;SDS011;13991;51.174;4.438;2024-03-07T13:48:14;42.83;;;21.30;;
26080;SDS011;13991;51.174;4.438;2024-03-07T13:50:42;45.03;;;19.27;;
26080;SDS011;13991;51.174;4.438;2024-03-07T13:53:13;44.00;;;21.17;;
26080;SDS011;13991;51.174;4.438;2024-03-07T13:58:35;53.27;;;22.20;;
26080;SDS011;13991;51.174;4.438;2024-03-07T14:17:04;42.10;;;20.30;;
26080;SDS011;13991;51.174;4.438;2024-03-07T14:30:51;41.27;;;18.47;;
26080;SDS011;13991;51.174;4.438;2024-03-07T14:33:19;37.70;;;17.87;;
26080;SDS011;13991;51.174;4.438;2024-03-07T14:38:53;37.63;;;17.43;;
26080;SDS011;13991;51.174;4.438;2024-03-07T14:44:09;46.43;;;18.00;;
26080;SDS011;13991;51.174;4.438;2024-03-07T14:46:35;41.37;;;18.50;;
26080;SDS011;13991;51.174;4.438;2024-03-07T14:49:02;35.83;;;17.77;;
26080;SDS011;13991;51.174;4.438;2024-03-07T14:51:29;39.87;;;17.97;;
26080;SDS011;13991;51.174;4.438;2024-03-07T14:53:55;43.60;;;18.27;;
26080;SDS011;13991;51.174;4.438;2024-03-07T14:56:22;33.60;;;16.53;;
26080;SDS011;13991;51.174;4.438;2024-03-07T14:58:48;35.00;;;16.90;;
26080;SDS011;13991;51.174;4.438;2024-03-07T15:01:13;34.53;;;16.70;;
26080;SDS011;13991;51.174;4.438;2024-03-07T15:03:39;30.97;;;15.50;;
26080;SDS011;13991;51.174;4.438;2024-03-07T15:06:10;34.90;;;16.47;;
26080;SDS011;13991;51.174;4.438;2024-03-07T15:08:39;40.33;;;16.27;;